sensor_id;sensor_type;location;lat;lon;timestamp;P1;durP1;ratioP1;P2;durP2;ratioP2
56116;SDS011;41989;45.356;20.392;2023-05-10T00:01:07;11.45;;;7.20;;
56116;SDS011;41989;45.356;20.392;2023-05-10T00:03:33;9.45;;;7.30;;
56116;SDS011;41989;45.356;20.392;2023-05-10T00:05:59;8.13;;;6.68;;
56116;SDS011;41989;45.356;20.392;2023-05-10T00:08:29;10.25;;;7.68;;
56116;SDS011;41989;45.356;20.392;2023-05-10T00:10:55;9.52;;;7.20;;
56116;SDS011;41989;45.356;20.392;2023-05-10T00:13:21;9.50;;;7.65;;
56116;SDS011;41989;45.356;20.392;2023-05-10T00:15:47;10.32;;;7.30;;
56116;SDS011;41989;45.356;20.392;2023-05-10T00:18:13;10.18;;;7.72;;
56116;SDS011;41989;45.356;20.392;2023-05-10T00:20:39;8.43;;;6.97;;
56116;SDS011;41989;45.356;20.392;2023-05-10T00:23:05;10.90;;;7.75;;
56116;SDS011;41989;45.356;20.392;2023-05-10T00:25:31;9.30;;;7.68;;
56116;SDS011;41989;45.356;20.392;2023-05-10T00:27:57;9.95;;;7.43;;
56116;SDS011;41989;45.356;20.392;2023-05-10T00:30:26;11.85;;;7.55;;
56116;SDS011;41989;45.356;20.392;2023-05-10T00:32:52;8.88;;;7.38;;
56116;SDS011;41989;45.356;20.392;2023-05-10T00:35:18;11.77;;;8.38;;
56116;SDS011;41989;45.356;20.392;2023-05-10T00:37:46;10.40;;;7.28;;
56116;SDS011;41989;45.356;20.392;2023-05-10T00:40:12;11.88;;;7.57;;
56116;SDS011;41989;45.356;20.392;2023-05-10T00:42:38;9.77;;;7.13;;
56116;SDS011;41989;45.356;20.392;2023-05-10T00:45:05;10.00;;;7.25;;
56116;SDS011;41989;45.356;20.392;2023-05-10T00:47:35;10.75;;;6.85;;
56116;SDS011;41989;45.356;20.392;2023-05-10T00:50:01;9.65;;;7.03;;
56116;SDS011;41989;45.356;20.392;2023-05-10T00:52:28;9.63;;;7.40;;
56116;SDS011;41989;45.356;20.392;2023-05-10T00:54:54;9.52;;;6.93;;
56116;SDS011;41989;45.356;20.392;2023-05-10T00:57:23;8.77;;;6.70;;
56116;SDS011;41989;45.356;20.392;2023-05-10T00:59:50;9.55;;;6.93;;
56116;SDS011;41989;45.356;20.392;2023-05-10T01:02:16;9.05;;;7.25;;
56116;SDS011;41989;45.356;20.392;2023-05-10T01:04:42;11.23;;;7.70;;
56116;SDS011;41989;45.356;20.392;2023-05-10T01:07:09;10.10;;;7.32;;
56116;SDS011;41989;45.356;20.392;2023-05-10T01:09:35;10.65;;;7.18;;
56116;SDS011;41989;45.356;20.392;2023-05-10T01:12:01;10.55;;;7.88;;
56116;SDS011;41989;45.356;20.392;2023-05-10T01:14:31;9.30;;;7.30;;
56116;SDS011;41989;45.356;20.392;2023-05-10T01:16:58;9.15;;;7.13;;
56116;SDS011;41989;45.356;20.392;2023-05-10T01:19:28;9.95;;;7.10;;
56116;SDS011;41989;45.356;20.392;2023-05-10T01:34:50;10.50;;;7.70;;
56116;SDS011;41989;45.356;20.392;2023-05-10T01:37:20;12.40;;;7.82;;
56116;SDS011;41989;45.356;20.392;2023-05-10T01:42:17;11.95;;;8.45;;
56116;SDS011;41989;45.356;20.392;2023-05-10T01:47:24;12.70;;;9.60;;
56116;SDS011;41989;45.356;20.392;2023-05-10T01:49:53;14.50;;;9.65;;
56116;SDS011;41989;45.356;20.392;2023-05-10T01:52:25;15.88;;;11.82;;
56116;SDS011;41989;45.356;20.392;2023-05-10T01:54:55;17.25;;;11.45;;
56116;SDS011;41989;45.356;20.392;2023-05-10T01:57:25;15.30;;;11.10;;
56116;SDS011;41989;45.356;20.392;2023-05-10T01:59:56;16.33;;;11.80;;
56116;SDS011;41989;45.356;20.392;2023-05-10T02:02:24;17.95;;;11.82;;
56116;SDS011;41989;45.356;20.392;2023-05-10T02:04:51;14.73;;;11.38;;
56116;SDS011;41989;45.356;20.392;2023-05-10T02:07:19;16.33;;;11.52;;
56116;SDS011;41989;45.356;20.392;2023-05-10T02:09:45;15.68;;;12.00;;
56116;SDS011;41989;45.356;20.392;2023-05-10T02:12:16;15.05;;;12.80;;
56116;SDS011;41989;45.356;20.392;2023-05-10T02:14:45;16.13;;;12.43;;
56116;SDS011;41989;45.356;20.392;2023-05-10T02:17:13;14.32;;;12.60;;
56116;SDS011;41989;45.356;20.392;2023-05-10T02:19:40;16.38;;;11.98;;
56116;SDS011;41989;45.356;20.392;2023-05-10T02:22:07;13.63;;;11.68;;
56116;SDS011;41989;45.356;20.392;2023-05-10T02:24:34;13.77;;;11.80;;
56116;SDS011;41989;45.356;20.392;2023-05-10T02:27:00;13.77;;;11.80;;
56116;SDS011;41989;45.356;20.392;2023-05-10T02:29:28;16.27;;;11.35;;
56116;SDS011;41989;45.356;20.392;2023-05-10T02:31:54;13.48;;;11.80;;
56116;SDS011;41989;45.356;20.392;2023-05-10T02:34:22;15.20;;;10.77;;
56116;SDS011;41989;45.356;20.392;2023-05-10T02:36:49;12.20;;;10.93;;
56116;SDS011;41989;45.356;20.392;2023-05-10T02:39:16;14.25;;;11.48;;
56116;SDS011;41989;45.356;20.392;2023-05-10T02:41:44;17.60;;;12.50;;
56116;SDS011;41989;45.356;20.392;2023-05-10T02:44:11;15.18;;;11.82;;
56116;SDS011;41989;45.356;20.392;2023-05-10T02:46:40;15.27;;;13.02;;
56116;SDS011;41989;45.356;20.392;2023-05-10T02:49:06;13.98;;;11.57;;
56116;SDS011;41989;45.356;20.392;2023-05-10T02:51:34;14.35;;;11.63;;
56116;SDS011;41989;45.356;20.392;2023-05-10T02:54:06;12.75;;;11.38;;
56116;SDS011;41989;45.356;20.392;2023-05-10T02:56:35;13.10;;;11.57;;
56116;SDS011;41989;45.356;20.392;2023-05-10T02:59:04;13.05;;;11.43;;
56116;SDS011;41989;45.356;20.392;2023-05-10T03:01:33;13.57;;;10.75;;
56116;SDS011;41989;45.356;20.392;2023-05-10T03:04:00;15.25;;;10.73;;
56116;SDS011;41989;45.356;20.392;2023-05-10T03:06:26;13.02;;;10.40;;
56116;SDS011;41989;45.356;20.392;2023-05-10T03:08:52;14.38;;;10.95;;
56116;SDS011;41989;45.356;20.392;2023-05-10T03:16:19;12.20;;;10.43;;
56116;SDS011;41989;45.356;20.392;2023-05-10T03:18:50;11.90;;;10.55;;
56116;SDS011;41989;45.356;20.392;2023-05-10T03:21:20;18.33;;;13.65;;
56116;SDS011;41989;45.356;20.392;2023-05-10T03:23:50;25.95;;;17.73;;
56116;SDS011;41989;45.356;20.392;2023-05-10T03:26:17;18.15;;;12.90;;
56116;SDS011;41989;45.356;20.392;2023-05-10T03:28:47;12.00;;;10.70;;
56116;SDS011;41989;45.356;20.392;2023-05-10T03:31:14;12.40;;;10.32;;
56116;SDS011;41989;45.356;20.392;2023-05-10T03:33:47;11.13;;;9.90;;
56116;SDS011;41989;45.356;20.392;2023-05-10T03:36:15;11.75;;;9.02;;
56116;SDS011;41989;45.356;20.392;2023-05-10T03:38:41;13.68;;;10.10;;
56116;SDS011;41989;45.356;20.392;2023-05-10T03:41:10;11.95;;;9.65;;
56116;SDS011;41989;45.356;20.392;2023-05-10T03:43:36;11.55;;;9.50;;
56116;SDS011;41989;45.356;20.392;2023-05-10T03:46:02;14.80;;;10.98;;
56116;SDS011;41989;45.356;20.392;2023-05-10T03:48:28;17.17;;;12.95;;
56116;SDS011;41989;45.356;20.392;2023-05-10T03:50:55;26.80;;;17.77;;
56116;SDS011;41989;45.356;20.392;2023-05-10T03:53:21;18.85;;;13.50;;
56116;SDS011;41989;45.356;20.392;2023-05-10T03:55:48;17.17;;;11.55;;
56116;SDS011;41989;45.356;20.392;2023-05-10T03:58:14;14.30;;;10.68;;
56116;SDS011;41989;45.356;20.392;2023-05-10T04:00:40;13.65;;;9.70;;
56116;SDS011;41989;45.356;20.392;2023-05-10T04:03:11;14.55;;;11.18;;
56116;SDS011;41989;45.356;20.392;2023-05-10T04:05:38;16.42;;;11.65;;
56116;SDS011;41989;45.356;20.392;2023-05-10T04:08:04;12.43;;;10.40;;
56116;SDS011;41989;45.356;20.392;2023-05-10T04:10:30;14.98;;;9.85;;
56116;SDS011;41989;45.356;20.392;2023-05-10T04:12:56;12.43;;;9.60;;
56116;SDS011;41989;45.356;20.392;2023-05-10T04:15:22;11.32;;;9.32;;
56116;SDS011;41989;45.356;20.392;2023-05-10T04:17:49;14.82;;;10.38;;
56116;SDS011;41989;45.356;20.392;2023-05-10T04:20:15;12.57;;;9.10;;
56116;SDS011;41989;45.356;20.392;2023-05-10T04:22:41;11.27;;;8.40;;
56116;SDS011;41989;45.356;20.392;2023-05-10T04:25:07;9.82;;;8.27;;
56116;SDS011;41989;45.356;20.392;2023-05-10T04:27:34;11.57;;;8.43;;
56116;SDS011;41989;45.356;20.392;2023-05-10T04:30:00;11.65;;;8.50;;
56116;SDS011;41989;45.356;20.392;2023-05-10T04:32:26;12.73;;;8.40;;
56116;SDS011;41989;45.356;20.392;2023-05-10T04:34:53;10.27;;;7.65;;
56116;SDS011;41989;45.356;20.392;2023-05-10T04:37:19;15.05;;;8.10;;
56116;SDS011;41989;45.356;20.392;2023-05-10T04:39:46;8.48;;;7.13;;
56116;SDS011;41989;45.356;20.392;2023-05-10T04:42:12;11.98;;;7.85;;
56116;SDS011;41989;45.356;20.392;2023-05-10T04:44:39;10.88;;;7.10;;
56116;SDS011;41989;45.356;20.392;2023-05-10T04:47:06;10.30;;;7.80;;
56116;SDS011;41989;45.356;20.392;2023-05-10T04:49:34;8.73;;;7.07;;
56116;SDS011;41989;45.356;20.392;2023-05-10T04:52:00;11.25;;;6.78;;
56116;SDS011;41989;45.356;20.392;2023-05-10T04:54:26;9.75;;;7.30;;
56116;SDS011;41989;45.356;20.392;2023-05-10T04:56:52;8.27;;;6.38;;
56116;SDS011;41989;45.356;20.392;2023-05-10T04:59:18;7.55;;;5.70;;
56116;SDS011;41989;45.356;20.392;2023-05-10T05:01:45;9.75;;;6.97;;
56116;SDS011;41989;45.356;20.392;2023-05-10T05:04:13;11.70;;;7.10;;
56116;SDS011;41989;45.356;20.392;2023-05-10T05:06:39;7.93;;;6.32;;
56116;SDS011;41989;45.356;20.392;2023-05-10T05:09:05;7.95;;;6.53;;
56116;SDS011;41989;45.356;20.392;2023-05-10T05:11:31;10.10;;;7.05;;
56116;SDS011;41989;45.356;20.392;2023-05-10T05:13:57;10.82;;;6.82;;
56116;SDS011;41989;45.356;20.392;2023-05-10T05:16:24;10.55;;;6.40;;
56116;SDS011;41989;45.356;20.392;2023-05-10T05:18:53;7.88;;;6.60;;
56116;SDS011;41989;45.356;20.392;2023-05-10T05:21:19;8.18;;;5.80;;
56116;SDS011;41989;45.356;20.392;2023-05-10T05:23:47;8.80;;;5.75;;
56116;SDS011;41989;45.356;20.392;2023-05-10T05:26:13;8.20;;;5.85;;
56116;SDS011;41989;45.356;20.392;2023-05-10T05:28:39;9.63;;;5.70;;
56116;SDS011;41989;45.356;20.392;2023-05-10T05:31:06;6.65;;;5.95;;
56116;SDS011;41989;45.356;20.392;2023-05-10T05:33:32;11.68;;;6.45;;
56116;SDS011;41989;45.356;20.392;2023-05-10T05:36:05;8.85;;;5.53;;
56116;SDS011;41989;45.356;20.392;2023-05-10T05:38:31;7.60;;;5.53;;
56116;SDS011;41989;45.356;20.392;2023-05-10T05:40:57;10.85;;;6.32;;
56116;SDS011;41989;45.356;20.392;2023-05-10T05:43:24;7.97;;;5.57;;
56116;SDS011;41989;45.356;20.392;2023-05-10T05:45:51;7.03;;;4.88;;
56116;SDS011;41989;45.356;20.392;2023-05-10T05:48:18;7.53;;;5.80;;
56116;SDS011;41989;45.356;20.392;2023-05-10T05:50:44;7.50;;;5.28;;
56116;SDS011;41989;45.356;20.392;2023-05-10T05:53:13;6.85;;;5.20;;
56116;SDS011;41989;45.356;20.392;2023-05-10T05:55:39;6.80;;;5.22;;
56116;SDS011;41989;45.356;20.392;2023-05-10T05:58:05;8.90;;;5.32;;
56116;SDS011;41989;45.356;20.392;2023-05-10T06:00:31;9.88;;;5.90;;
56116;SDS011;41989;45.356;20.392;2023-05-10T06:02:57;14.80;;;5.93;;
56116;SDS011;41989;45.356;20.392;2023-05-10T06:05:23;9.60;;;5.82;;
56116;SDS011;41989;45.356;20.392;2023-05-10T06:07:49;7.88;;;5.57;;
56116;SDS011;41989;45.356;20.392;2023-05-10T06:10:16;8.73;;;5.57;;
56116;SDS011;41989;45.356;20.392;2023-05-10T06:12:42;8.23;;;5.05;;
56116;SDS011;41989;45.356;20.392;2023-05-10T06:15:08;6.10;;;4.45;;
56116;SDS011;41989;45.356;20.392;2023-05-10T06:17:36;12.88;;;4.68;;
56116;SDS011;41989;45.356;20.392;2023-05-10T06:20:03;10.32;;;5.80;;
56116;SDS011;41989;45.356;20.392;2023-05-10T06:22:30;7.53;;;5.22;;
56116;SDS011;41989;45.356;20.392;2023-05-10T06:24:56;8.55;;;5.07;;
56116;SDS011;41989;45.356;20.392;2023-05-10T06:27:24;5.63;;;4.38;;
56116;SDS011;41989;45.356;20.392;2023-05-10T06:29:50;6.55;;;4.75;;
56116;SDS011;41989;45.356;20.392;2023-05-10T06:32:17;7.50;;;4.97;;
56116;SDS011;41989;45.356;20.392;2023-05-10T06:34:43;7.28;;;5.22;;
56116;SDS011;41989;45.356;20.392;2023-05-10T06:37:11;5.75;;;4.88;;
56116;SDS011;41989;45.356;20.392;2023-05-10T06:39:37;7.30;;;5.15;;
56116;SDS011;41989;45.356;20.392;2023-05-10T06:42:03;8.52;;;4.10;;
56116;SDS011;41989;45.356;20.392;2023-05-10T06:44:30;12.25;;;4.82;;
56116;SDS011;41989;45.356;20.392;2023-05-10T06:46:56;14.23;;;4.55;;
56116;SDS011;41989;45.356;20.392;2023-05-10T06:49:22;6.38;;;4.40;;
56116;SDS011;41989;45.356;20.392;2023-05-10T06:51:48;6.20;;;4.15;;
56116;SDS011;41989;45.356;20.392;2023-05-10T06:54:14;10.73;;;4.60;;
56116;SDS011;41989;45.356;20.392;2023-05-10T06:56:40;11.40;;;4.00;;
56116;SDS011;41989;45.356;20.392;2023-05-10T06:59:06;10.10;;;4.55;;
56116;SDS011;41989;45.356;20.392;2023-05-10T07:01:32;13.95;;;4.55;;
56116;SDS011;41989;45.356;20.392;2023-05-10T07:03:59;8.38;;;4.30;;
56116;SDS011;41989;45.356;20.392;2023-05-10T07:06:25;13.93;;;4.82;;
56116;SDS011;41989;45.356;20.392;2023-05-10T07:08:52;8.55;;;4.93;;
56116;SDS011;41989;45.356;20.392;2023-05-10T07:11:18;7.32;;;4.50;;
56116;SDS011;41989;45.356;20.392;2023-05-10T07:13:44;5.43;;;4.20;;
56116;SDS011;41989;45.356;20.392;2023-05-10T07:16:11;7.32;;;3.95;;
56116;SDS011;41989;45.356;20.392;2023-05-10T07:18:40;12.32;;;4.50;;
56116;SDS011;41989;45.356;20.392;2023-05-10T07:21:06;8.52;;;4.18;;
56116;SDS011;41989;45.356;20.392;2023-05-10T07:23:35;8.23;;;3.92;;
56116;SDS011;41989;45.356;20.392;2023-05-10T07:26:01;7.35;;;4.50;;
56116;SDS011;41989;45.356;20.392;2023-05-10T07:28:27;8.18;;;4.32;;
56116;SDS011;41989;45.356;20.392;2023-05-10T07:30:53;6.10;;;4.20;;
56116;SDS011;41989;45.356;20.392;2023-05-10T07:33:19;8.13;;;4.07;;
56116;SDS011;41989;45.356;20.392;2023-05-10T07:35:46;10.13;;;4.50;;
56116;SDS011;41989;45.356;20.392;2023-05-10T07:38:12;8.13;;;4.75;;
56116;SDS011;41989;45.356;20.392;2023-05-10T07:40:38;12.75;;;4.32;;
56116;SDS011;41989;45.356;20.392;2023-05-10T07:43:05;9.15;;;4.40;;
56116;SDS011;41989;45.356;20.392;2023-05-10T07:45:31;6.82;;;4.55;;
56116;SDS011;41989;45.356;20.392;2023-05-10T07:47:57;7.75;;;4.25;;
56116;SDS011;41989;45.356;20.392;2023-05-10T07:50:23;11.40;;;4.90;;
56116;SDS011;41989;45.356;20.392;2023-05-10T07:52:49;8.80;;;4.68;;
56116;SDS011;41989;45.356;20.392;2023-05-10T07:55:15;6.40;;;4.22;;
56116;SDS011;41989;45.356;20.392;2023-05-10T07:57:47;13.60;;;3.85;;
56116;SDS011;41989;45.356;20.392;2023-05-10T08:00:13;7.78;;;3.75;;
56116;SDS011;41989;45.356;20.392;2023-05-10T08:02:42;9.88;;;5.00;;
56116;SDS011;41989;45.356;20.392;2023-05-10T08:05:08;8.13;;;3.97;;
56116;SDS011;41989;45.356;20.392;2023-05-10T08:07:34;6.63;;;3.83;;
56116;SDS011;41989;45.356;20.392;2023-05-10T08:10:01;6.03;;;3.80;;
56116;SDS011;41989;45.356;20.392;2023-05-10T08:12:27;8.23;;;4.13;;
56116;SDS011;41989;45.356;20.392;2023-05-10T08:14:53;10.23;;;4.47;;
56116;SDS011;41989;45.356;20.392;2023-05-10T08:17:19;5.28;;;3.53;;
56116;SDS011;41989;45.356;20.392;2023-05-10T08:19:45;5.55;;;3.30;;
56116;SDS011;41989;45.356;20.392;2023-05-10T08:22:11;9.23;;;3.67;;
56116;SDS011;41989;45.356;20.392;2023-05-10T08:24:37;4.63;;;3.55;;
56116;SDS011;41989;45.356;20.392;2023-05-10T08:27:07;5.03;;;3.67;;
56116;SDS011;41989;45.356;20.392;2023-05-10T08:29:34;8.73;;;3.35;;
56116;SDS011;41989;45.356;20.392;2023-05-10T08:32:00;8.25;;;3.58;;
56116;SDS011;41989;45.356;20.392;2023-05-10T08:34:26;10.43;;;3.63;;
56116;SDS011;41989;45.356;20.392;2023-05-10T08:36:52;10.75;;;3.30;;
56116;SDS011;41989;45.356;20.392;2023-05-10T08:39:18;4.93;;;2.85;;
56116;SDS011;41989;45.356;20.392;2023-05-10T08:41:45;9.85;;;2.88;;
56116;SDS011;41989;45.356;20.392;2023-05-10T08:44:12;14.32;;;4.15;;
56116;SDS011;41989;45.356;20.392;2023-05-10T08:46:38;7.40;;;2.90;;
56116;SDS011;41989;45.356;20.392;2023-05-10T08:49:09;11.27;;;3.13;;
56116;SDS011;41989;45.356;20.392;2023-05-10T08:51:36;6.70;;;3.35;;
56116;SDS011;41989;45.356;20.392;2023-05-10T08:54:09;10.55;;;2.20;;
56116;SDS011;41989;45.356;20.392;2023-05-10T08:56:35;7.20;;;2.88;;
56116;SDS011;41989;45.356;20.392;2023-05-10T08:59:01;5.97;;;2.42;;
56116;SDS011;41989;45.356;20.392;2023-05-10T09:01:28;8.57;;;3.15;;
56116;SDS011;41989;45.356;20.392;2023-05-10T09:03:54;7.60;;;2.53;;
56116;SDS011;41989;45.356;20.392;2023-05-10T09:06:21;10.38;;;2.20;;
56116;SDS011;41989;45.356;20.392;2023-05-10T09:08:47;5.35;;;2.80;;
56116;SDS011;41989;45.356;20.392;2023-05-10T09:11:13;6.65;;;2.85;;
56116;SDS011;41989;45.356;20.392;2023-05-10T09:13:40;5.45;;;2.42;;
56116;SDS011;41989;45.356;20.392;2023-05-10T09:16:06;8.80;;;2.40;;
56116;SDS011;41989;45.356;20.392;2023-05-10T09:18:32;7.53;;;2.20;;
56116;SDS011;41989;45.356;20.392;2023-05-10T09:20:58;11.60;;;2.30;;
56116;SDS011;41989;45.356;20.392;2023-05-10T09:23:27;2.60;;;2.00;;
56116;SDS011;41989;45.356;20.392;2023-05-10T09:28:23;9.77;;;2.72;;
56116;SDS011;41989;45.356;20.392;2023-05-10T09:30:52;8.70;;;2.28;;
56116;SDS011;41989;45.356;20.392;2023-05-10T09:33:20;8.70;;;2.53;;
56116;SDS011;41989;45.356;20.392;2023-05-10T09:35:46;9.43;;;1.80;;
56116;SDS011;41989;45.356;20.392;2023-05-10T09:38:12;10.25;;;2.70;;
56116;SDS011;41989;45.356;20.392;2023-05-10T09:40:39;8.55;;;2.58;;
56116;SDS011;41989;45.356;20.392;2023-05-10T09:43:08;11.18;;;2.30;;
56116;SDS011;41989;45.356;20.392;2023-05-10T09:45:35;7.88;;;1.77;;
56116;SDS011;41989;45.356;20.392;2023-05-10T09:48:02;8.48;;;2.10;;
56116;SDS011;41989;45.356;20.392;2023-05-10T09:50:29;5.18;;;2.00;;
56116;SDS011;41989;45.356;20.392;2023-05-10T09:52:56;5.78;;;2.10;;
56116;SDS011;41989;45.356;20.392;2023-05-10T09:55:45;8.05;;;2.45;;
56116;SDS011;41989;45.356;20.392;2023-05-10T09:58:10;5.10;;;2.05;;
56116;SDS011;41989;45.356;20.392;2023-05-10T10:00:37;3.70;;;1.75;;
56116;SDS011;41989;45.356;20.392;2023-05-10T10:03:03;9.65;;;2.08;;
56116;SDS011;41989;45.356;20.392;2023-05-10T10:05:30;8.45;;;2.47;;
56116;SDS011;41989;45.356;20.392;2023-05-10T10:08:00;4.77;;;2.17;;
56116;SDS011;41989;45.356;20.392;2023-05-10T10:10:27;7.50;;;2.17;;
56116;SDS011;41989;45.356;20.392;2023-05-10T10:12:53;7.80;;;2.42;;
56116;SDS011;41989;45.356;20.392;2023-05-10T10:15:20;4.75;;;2.28;;
56116;SDS011;41989;45.356;20.392;2023-05-10T10:17:46;12.20;;;2.78;;
56116;SDS011;41989;45.356;20.392;2023-05-10T10:20:14;6.43;;;2.88;;
56116;SDS011;41989;45.356;20.392;2023-05-10T10:22:40;8.85;;;2.53;;
56116;SDS011;41989;45.356;20.392;2023-05-10T10:25:07;6.65;;;2.22;;
56116;SDS011;41989;45.356;20.392;2023-05-10T10:35:29;7.65;;;1.98;;
56116;SDS011;41989;45.356;20.392;2023-05-10T10:37:55;5.95;;;2.42;;
56116;SDS011;41989;45.356;20.392;2023-05-10T10:42:50;7.47;;;1.80;;
56116;SDS011;41989;45.356;20.392;2023-05-10T10:45:17;5.90;;;1.77;;
56116;SDS011;41989;45.356;20.392;2023-05-10T10:47:43;4.55;;;2.28;;
56116;SDS011;41989;45.356;20.392;2023-05-10T10:50:10;5.80;;;2.17;;
56116;SDS011;41989;45.356;20.392;2023-05-10T10:52:41;6.47;;;1.67;;
56116;SDS011;41989;45.356;20.392;2023-05-10T11:00:23;7.88;;;2.17;;
56116;SDS011;41989;45.356;20.392;2023-05-10T11:02:50;9.75;;;2.15;;
56116;SDS011;41989;45.356;20.392;2023-05-10T11:05:33;12.75;;;1.98;;
56116;SDS011;41989;45.356;20.392;2023-05-10T11:08:01;7.72;;;1.83;;
56116;SDS011;41989;45.356;20.392;2023-05-10T11:10:32;6.93;;;1.77;;
56116;SDS011;41989;45.356;20.392;2023-05-10T11:12:59;9.32;;;1.60;;
56116;SDS011;41989;45.356;20.392;2023-05-10T11:15:36;12.52;;;1.60;;
56116;SDS011;41989;45.356;20.392;2023-05-10T11:18:18;11.95;;;1.95;;
56116;SDS011;41989;45.356;20.392;2023-05-10T11:20:49;12.52;;;1.90;;
56116;SDS011;41989;45.356;20.392;2023-05-10T11:23:16;8.98;;;2.10;;
56116;SDS011;41989;45.356;20.392;2023-05-10T11:25:43;8.75;;;2.58;;
56116;SDS011;41989;45.356;20.392;2023-05-10T11:28:10;7.60;;;1.58;;
56116;SDS011;41989;45.356;20.392;2023-05-10T11:30:37;12.38;;;2.10;;
56116;SDS011;41989;45.356;20.392;2023-05-10T11:33:06;5.38;;;1.85;;
56116;SDS011;41989;45.356;20.392;2023-05-10T11:35:39;9.45;;;2.03;;
56116;SDS011;41989;45.356;20.392;2023-05-10T11:38:10;8.00;;;2.83;;
56116;SDS011;41989;45.356;20.392;2023-05-10T11:40:37;7.57;;;2.10;;
56116;SDS011;41989;45.356;20.392;2023-05-10T11:43:03;4.30;;;1.58;;
56116;SDS011;41989;45.356;20.392;2023-05-10T11:45:33;7.63;;;1.75;;
56116;SDS011;41989;45.356;20.392;2023-05-10T11:47:59;4.80;;;1.93;;
56116;SDS011;41989;45.356;20.392;2023-05-10T11:50:26;7.10;;;1.98;;
56116;SDS011;41989;45.356;20.392;2023-05-10T11:52:53;15.75;;;2.90;;
56116;SDS011;41989;45.356;20.392;2023-05-10T11:55:19;6.07;;;1.98;;
56116;SDS011;41989;45.356;20.392;2023-05-10T11:57:45;18.88;;;3.38;;
56116;SDS011;41989;45.356;20.392;2023-05-10T12:00:12;8.55;;;2.00;;
56116;SDS011;41989;45.356;20.392;2023-05-10T12:02:38;4.28;;;2.10;;
56116;SDS011;41989;45.356;20.392;2023-05-10T12:05:05;7.95;;;2.15;;
56116;SDS011;41989;45.356;20.392;2023-05-10T12:07:31;8.93;;;2.20;;
56116;SDS011;41989;45.356;20.392;2023-05-10T12:12:42;6.60;;;2.28;;
56116;SDS011;41989;45.356;20.392;2023-05-10T12:15:26;9.45;;;2.38;;
56116;SDS011;41989;45.356;20.392;2023-05-10T12:17:53;9.27;;;2.38;;
56116;SDS011;41989;45.356;20.392;2023-05-10T12:20:20;8.95;;;2.25;;
56116;SDS011;41989;45.356;20.392;2023-05-10T12:22:56;9.15;;;2.33;;
56116;SDS011;41989;45.356;20.392;2023-05-10T12:25:23;7.65;;;2.08;;
56116;SDS011;41989;45.356;20.392;2023-05-10T12:27:54;12.57;;;2.25;;
56116;SDS011;41989;45.356;20.392;2023-05-10T12:30:24;14.40;;;2.13;;
56116;SDS011;41989;45.356;20.392;2023-05-10T12:32:51;11.00;;;2.40;;
56116;SDS011;41989;45.356;20.392;2023-05-10T12:35:17;8.27;;;2.40;;
56116;SDS011;41989;45.356;20.392;2023-05-10T12:37:48;14.43;;;2.42;;
56116;SDS011;41989;45.356;20.392;2023-05-10T12:40:15;7.63;;;2.33;;
56116;SDS011;41989;45.356;20.392;2023-05-10T12:42:41;6.55;;;2.20;;
56116;SDS011;41989;45.356;20.392;2023-05-10T12:45:07;6.82;;;1.80;;
56116;SDS011;41989;45.356;20.392;2023-05-10T12:47:34;5.43;;;1.80;;
56116;SDS011;41989;45.356;20.392;2023-05-10T12:50:00;6.40;;;1.85;;
56116;SDS011;41989;45.356;20.392;2023-05-10T12:52:27;4.80;;;1.77;;
56116;SDS011;41989;45.356;20.392;2023-05-10T12:54:54;7.25;;;1.95;;
56116;SDS011;41989;45.356;20.392;2023-05-10T12:57:20;5.30;;;1.70;;
56116;SDS011;41989;45.356;20.392;2023-05-10T12:59:46;6.78;;;1.92;;
56116;SDS011;41989;45.356;20.392;2023-05-10T13:02:13;10.82;;;2.35;;
56116;SDS011;41989;45.356;20.392;2023-05-10T13:04:39;8.45;;;1.60;;
56116;SDS011;41989;45.356;20.392;2023-05-10T13:07:07;9.32;;;1.50;;
56116;SDS011;41989;45.356;20.392;2023-05-10T13:09:33;7.20;;;1.85;;
56116;SDS011;41989;45.356;20.392;2023-05-10T13:11:59;6.88;;;1.90;;
56116;SDS011;41989;45.356;20.392;2023-05-10T13:14:25;18.70;;;2.22;;
56116;SDS011;41989;45.356;20.392;2023-05-10T13:16:52;8.75;;;1.25;;
56116;SDS011;41989;45.356;20.392;2023-05-10T13:19:18;7.68;;;1.88;;
56116;SDS011;41989;45.356;20.392;2023-05-10T13:21:45;8.63;;;1.48;;
56116;SDS011;41989;45.356;20.392;2023-05-10T13:24:11;5.78;;;1.40;;
56116;SDS011;41989;45.356;20.392;2023-05-10T13:26:41;7.57;;;1.67;;
56116;SDS011;41989;45.356;20.392;2023-05-10T13:29:07;12.65;;;1.77;;
56116;SDS011;41989;45.356;20.392;2023-05-10T13:31:33;5.05;;;1.60;;
56116;SDS011;41989;45.356;20.392;2023-05-10T13:33:59;5.50;;;1.20;;
56116;SDS011;41989;45.356;20.392;2023-05-10T13:36:25;8.45;;;1.83;;
56116;SDS011;41989;45.356;20.392;2023-05-10T13:38:52;9.27;;;1.88;;
56116;SDS011;41989;45.356;20.392;2023-05-10T13:41:18;4.18;;;1.50;;
56116;SDS011;41989;45.356;20.392;2023-05-10T13:43:44;7.18;;;1.48;;
56116;SDS011;41989;45.356;20.392;2023-05-10T13:46:10;16.13;;;2.08;;
56116;SDS011;41989;45.356;20.392;2023-05-10T13:48:36;14.98;;;1.90;;
56116;SDS011;41989;45.356;20.392;2023-05-10T13:51:03;11.75;;;1.58;;
56116;SDS011;41989;45.356;20.392;2023-05-10T13:53:29;7.22;;;1.50;;
56116;SDS011;41989;45.356;20.392;2023-05-10T13:55:55;5.22;;;1.02;;
56116;SDS011;41989;45.356;20.392;2023-05-10T13:58:21;5.15;;;1.35;;
56116;SDS011;41989;45.356;20.392;2023-05-10T14:00:47;4.68;;;1.38;;
56116;SDS011;41989;45.356;20.392;2023-05-10T14:03:13;5.60;;;1.30;;
56116;SDS011;41989;45.356;20.392;2023-05-10T14:05:40;8.02;;;1.52;;
56116;SDS011;41989;45.356;20.392;2023-05-10T14:08:06;6.80;;;1.63;;
56116;SDS011;41989;45.356;20.392;2023-05-10T14:10:34;5.30;;;1.40;;
56116;SDS011;41989;45.356;20.392;2023-05-10T14:13:00;6.50;;;1.42;;
56116;SDS011;41989;45.356;20.392;2023-05-10T14:15:27;5.57;;;1.23;;
56116;SDS011;41989;45.356;20.392;2023-05-10T14:17:53;7.05;;;1.50;;
56116;SDS011;41989;45.356;20.392;2023-05-10T14:20:19;4.10;;;1.48;;
56116;SDS011;41989;45.356;20.392;2023-05-10T14:22:45;7.85;;;1.55;;
56116;SDS011;41989;45.356;20.392;2023-05-10T14:25:11;5.88;;;1.42;;
56116;SDS011;41989;45.356;20.392;2023-05-10T14:27:38;6.78;;;1.45;;
56116;SDS011;41989;45.356;20.392;2023-05-10T14:30:09;5.55;;;1.45;;
56116;SDS011;41989;45.356;20.392;2023-05-10T14:32:36;5.38;;;1.60;;
56116;SDS011;41989;45.356;20.392;2023-05-10T14:35:02;6.38;;;1.52;;
56116;SDS011;41989;45.356;20.392;2023-05-10T14:37:28;6.00;;;1.33;;
56116;SDS011;41989;45.356;20.392;2023-05-10T14:39:54;7.65;;;1.58;;
56116;SDS011;41989;45.356;20.392;2023-05-10T14:42:20;4.65;;;1.40;;
56116;SDS011;41989;45.356;20.392;2023-05-10T14:44:46;7.07;;;1.38;;
56116;SDS011;41989;45.356;20.392;2023-05-10T14:47:12;8.05;;;1.42;;
56116;SDS011;41989;45.356;20.392;2023-05-10T14:49:39;4.53;;;1.63;;
56116;SDS011;41989;45.356;20.392;2023-05-10T14:52:06;7.50;;;1.50;;
56116;SDS011;41989;45.356;20.392;2023-05-10T14:54:32;4.70;;;1.52;;
56116;SDS011;41989;45.356;20.392;2023-05-10T14:56:58;5.97;;;1.52;;
56116;SDS011;41989;45.356;20.392;2023-05-10T14:59:25;6.32;;;2.03;;
56116;SDS011;41989;45.356;20.392;2023-05-10T15:01:51;10.02;;;2.15;;
56116;SDS011;41989;45.356;20.392;2023-05-10T15:04:17;9.18;;;2.58;;
56116;SDS011;41989;45.356;20.392;2023-05-10T15:06:43;6.35;;;1.40;;
56116;SDS011;41989;45.356;20.392;2023-05-10T15:09:10;9.15;;;2.30;;
56116;SDS011;41989;45.356;20.392;2023-05-10T15:11:36;4.78;;;1.33;;